Time;durP1;ratioP1;P1;durP2;ratioP2;P2;SDS_P1;SDS_P2;PMS_P1;PMS_P2;Temp;Humidity;BMP_temperature;BMP_pressure;BME280_temperature;BME280_humidity;BME280_pressure;Samples;Min_cycle;Max_cycle;Signal;HPM_P1;HPM_P2
2021/09/10 00:01:58;;;;;;;11.23;10.13;;;16.50;99.90;;;;;;5064617;28;20040;-50
2021/09/10 00:04:23;;;;;;;11.20;10.00;;;16.50;99.90;;;;;;5039851;28;20078;-55
2021/09/10 00:06:50;;;;;;;11.25;10.15;;;16.50;99.90;;;;;;5057417;28;20040;-53
2021/09/10 00:09:16;;;;;;;12.27;10.98;;;16.40;99.90;;;;;;5060867;28;20111;-53
2021/09/10 00:11:42;;;;;;;12.38;11.07;;;16.40;99.90;;;;;;5061102;28;20025;-53
2021/09/10 00:14:07;;;;;;;10.98;9.93;;;16.40;99.90;;;;;;5059403;28;20379;-55
2021/09/10 00:16:33;;;;;;;12.77;11.48;;;16.40;99.90;;;;;;5062765;28;20031;-50
2021/09/10 00:18:59;;;;;;;12.50;11.20;;;16.50;99.90;;;;;;5058496;28;20098;-51
2021/09/10 00:21:24;;;;;;;13.25;11.60;;;16.50;99.90;;;;;;5065422;28;20025;-52
2021/09/10 00:23:50;;;;;;;13.82;11.18;;;16.60;99.90;;;;;;5039614;28;20035;-54
2021/09/10 00:26:15;;;;;;;14.88;12.32;;;16.60;99.90;;;;;;5060417;28;20020;-49
2021/09/10 00:28:41;;;;;;;12.73;11.38;;;16.60;99.90;;;;;;5061475;28;20033;-52
2021/09/10 00:31:06;;;;;;;11.32;10.23;;;16.60;99.90;;;;;;5059548;28;20028;-52
2021/09/10 00:33:34;;;;;;;12.77;10.93;;;16.70;99.90;;;;;;5063000;28;20070;-53
2021/09/10 00:36:00;;;;;;;11.45;10.35;;;16.70;99.90;;;;;;5058042;28;20029;-51
2021/09/10 00:38:25;;;;;;;10.88;9.85;;;16.70;99.90;;;;;;5064923;28;20025;-48
2021/09/10 00:57:41;;;;;;;11.75;10.50;;;16.90;99.90;;;;;;5055887;28;20070;-53
2021/09/10 01:00:07;;;;;;;13.32;10.27;;;17.00;99.90;;;;;;5060732;28;20032;-50
2021/09/10 01:02:33;;;;;;;12.20;11.00;;;16.90;99.90;;;;;;5045434;28;20029;-52
2021/09/10 01:04:59;;;;;;;11.70;10.45;;;17.00;99.90;;;;;;5060306;28;20143;-51
2021/09/10 01:07:25;;;;;;;11.98;10.77;;;17.00;99.90;;;;;;5059174;23;20132;-50
2021/09/10 01:09:51;;;;;;;12.32;10.75;;;17.00;99.90;;;;;;5022891;28;20053;-53
2021/09/10 01:12:17;;;;;;;13.15;10.20;;;17.00;99.90;;;;;;5027627;28;20025;-53
2021/09/10 01:14:44;;;;;;;11.32;10.27;;;17.00;99.90;;;;;;5025118;28;20040;-52
2021/09/10 01:17:09;;;;;;;11.75;10.55;;;17.10;99.90;;;;;;5027688;28;20024;-52
2021/09/10 01:19:36;;;;;;;12.18;10.98;;;17.10;99.90;;;;;;5026546;28;20025;-53
2021/09/10 01:22:04;;;;;;;11.73;10.52;;;17.10;99.90;;;;;;5029574;28;20044;-53
2021/09/10 01:24:37;;;;;;;11.32;10.23;;;17.10;99.90;;;;;;5026669;28;20026;-51
2021/09/10 01:27:04;;;;;;;12.88;11.57;;;17.20;99.90;;;;;;5023020;28;20025;-53
2021/09/10 01:29:32;;;;;;;14.30;11.00;;;17.20;99.90;;;;;;5028422;28;20075;-52
2021/09/10 01:31:57;;;;;;;11.73;10.52;;;17.20;99.90;;;;;;5024444;28;20117;-51
2021/09/10 01:34:23;;;;;;;12.05;10.82;;;17.20;99.90;;;;;;5028772;28;20053;-52
2021/09/10 01:36:50;;;;;;;11.48;10.38;;;17.20;99.90;;;;;;5026185;28;20442;-51
2021/09/10 01:39:16;;;;;;;11.85;10.65;;;17.20;99.90;;;;;;5029145;28;20030;-50
2021/09/10 01:41:42;;;;;;;11.45;10.27;;;17.10;99.90;;;;;;5027115;28;20032;-52
2021/09/10 01:44:08;;;;;;;12.07;10.77;;;17.10;99.90;;;;;;5022494;28;20030;-51
2021/09/10 01:46:36;;;;;;;13.15;11.18;;;17.10;99.90;;;;;;5027505;28;20029;-50
2021/09/10 01:49:02;;;;;;;11.35;10.02;;;17.10;99.90;;;;;;5006318;28;20108;-49
2021/09/10 01:51:32;;;;;;;12.55;11.35;;;17.10;99.90;;;;;;5028250;28;20021;-51
2021/09/10 01:53:59;;;;;;;11.65;10.52;;;17.10;99.90;;;;;;5025745;28;20029;-50
2021/09/10 01:56:25;;;;;;;10.48;9.57;;;17.10;99.90;;;;;;5029138;28;20545;-50
2021/09/10 01:58:51;;;;;;;11.90;10.73;;;17.10;99.90;;;;;;5026963;28;20056;-52
2021/09/10 02:01:27;;;;;;;11.60;10.18;;;17.10;99.90;;;;;;5022520;28;20049;-50
2021/09/10 02:03:53;;;;;;;11.35;10.25;;;17.10;99.90;;;;;;5027709;28;20030;-52
2021/09/10 02:06:19;;;;;;;11.73;10.55;;;17.10;99.90;;;;;;5023619;28;20083;-51
2021/09/10 02:08:45;;;;;;;11.95;10.43;;;17.10;99.90;;;;;;5020579;28;20026;-49
2021/09/10 02:11:11;;;;;;;11.25;10.05;;;17.10;99.90;;;;;;5028502;28;20022;-50
2021/09/10 02:13:37;;;;;;;12.10;10.90;;;17.10;99.90;;;;;;5022747;28;20022;-51
2021/09/10 02:16:03;;;;;;;12.38;10.98;;;17.00;99.90;;;;;;5018612;28;20037;-52
2021/09/10 02:18:28;;;;;;;12.13;10.65;;;17.10;99.90;;;;;;5028702;28;20104;-51
2021/09/10 02:20:54;;;;;;;11.50;10.35;;;17.00;99.90;;;;;;5024825;28;20029;-50
2021/09/10 02:23:19;;;;;;;12.80;10.38;;;17.00;99.90;;;;;;5024026;28;20037;-52
2021/09/10 02:25:45;;;;;;;12.48;11.18;;;17.00;99.90;;;;;;5024898;28;20036;-50
2021/09/10 02:28:11;;;;;;;12.20;10.90;;;17.00;99.90;;;;;;5028302;28;20108;-50
2021/09/10 02:30:36;;;;;;;11.57;10.38;;;17.00;99.90;;;;;;5007903;28;20476;-50
2021/09/10 02:33:02;;;;;;;13.18;11.88;;;17.00;99.90;;;;;;5028686;28;20084;-50
2021/09/10 02:35:27;;;;;;;12.43;10.88;;;17.00;99.90;;;;;;5022839;28;20088;-50
2021/09/10 02:37:56;;;;;;;11.85;10.68;;;17.00;99.90;;;;;;5008409;28;20021;-49
2021/09/10 02:40:22;;;;;;;11.73;10.52;;;17.00;99.90;;;;;;5017021;28;20380;-53
2021/09/10 02:42:48;;;;;;;12.25;10.57;;;17.00;99.90;;;;;;5026268;28;20032;-51
2021/09/10 02:45:14;;;;;;;12.23;11.00;;;17.00;99.90;;;;;;5027857;28;20096;-49
2021/09/10 02:47:40;;;;;;;13.38;11.15;;;17.00;99.90;;;;;;4996557;28;20472;-51
2021/09/10 02:50:06;;;;;;;13.45;12.05;;;17.00;99.90;;;;;;5026687;28;20087;-53
2021/09/10 02:52:36;;;;;;;11.82;10.73;;;17.00;99.90;;;;;;5023277;28;20025;-49
2021/09/10 02:55:03;;;;;;;12.80;11.52;;;17.00;99.90;;;;;;5009624;28;20029;-52
2021/09/10 02:57:28;;;;;;;13.70;11.40;;;17.00;99.90;;;;;;5025557;28;20441;-49
2021/09/10 02:59:54;;;;;;;12.30;11.07;;;17.00;99.90;;;;;;5027563;28;20021;-50
2021/09/10 03:02:19;;;;;;;13.50;11.77;;;17.00;99.90;;;;;;5009702;28;20029;-51
2021/09/10 03:04:47;;;;;;;12.18;11.05;;;17.00;99.90;;;;;;5019780;28;20033;-53
2021/09/10 03:07:14;;;;;;;13.93;11.63;;;17.00;99.90;;;;;;5027786;28;20091;-50
2021/09/10 03:09:39;;;;;;;13.55;12.25;;;17.00;99.90;;;;;;5004204;28;20025;-50
2021/09/10 03:12:05;;;;;;;12.57;11.27;;;17.00;99.90;;;;;;5027554;28;20021;-51
2021/09/10 03:14:31;;;;;;;13.25;12.00;;;17.00;99.90;;;;;;5024216;28;20025;-50
2021/09/10 03:16:57;;;;;;;12.93;11.57;;;17.00;99.90;;;;;;5019143;28;20025;-50
2021/09/10 03:19:24;;;;;;;14.27;12.88;;;17.00;99.90;;;;;;5027508;28;20113;-49
2021/09/10 03:21:49;;;;;;;13.85;12.35;;;17.00;99.90;;;;;;5019808;28;20403;-51
2021/09/10 03:24:15;;;;;;;13.32;11.93;;;17.00;99.90;;;;;;5009997;28;20039;-50
2021/09/10 03:26:41;;;;;;;13.18;11.88;;;17.00;99.90;;;;;;5023974;28;20421;-50
2021/09/10 03:29:07;;;;;;;13.27;11.95;;;17.00;99.90;;;;;;5020859;28;20026;-51
2021/09/10 03:31:32;;;;;;;13.80;12.02;;;17.10;99.90;;;;;;5026331;28;20032;-50
2021/09/10 03:33:58;;;;;;;14.27;12.77;;;17.10;99.90;;;;;;5020168;28;20460;-50
2021/09/10 03:36:24;;;;;;;13.65;12.25;;;17.10;99.90;;;;;;5028716;28;20400;-51
2021/09/10 03:38:49;;;;;;;14.30;12.90;;;17.10;99.90;;;;;;5020707;28;20025;-51
2021/09/10 03:41:15;;;;;;;14.32;12.93;;;17.10;99.90;;;;;;5029191;28;20040;-49
2021/09/10 03:43:42;;;;;;;15.80;14.23;;;17.10;99.90;;;;;;5023580;28;20400;-49
2021/09/10 03:46:11;;;;;;;18.27;16.38;;;17.20;99.90;;;;;;5020123;28;20045;-52
2021/09/10 03:48:37;;;;;;;19.38;15.25;;;17.20;99.90;;;;;;5025602;28;20500;-52
2021/09/10 03:51:03;;;;;;;18.70;16.58;;;17.30;99.90;;;;;;5003035;28;20026;-50
2021/09/10 03:53:29;;;;;;;17.48;15.63;;;17.30;99.90;;;;;;5028345;28;20037;-50
2021/09/10 03:55:54;;;;;;;19.27;17.02;;;17.40;99.90;;;;;;5002572;28;20025;-51
2021/09/10 03:58:20;;;;;;;21.13;17.92;;;17.40;99.90;;;;;;5014404;28;20029;-50
2021/09/10 04:00:46;;;;;;;21.13;17.60;;;17.40;99.90;;;;;;5022714;28;20029;-51
2021/09/10 04:03:11;;;;;;;20.85;17.75;;;17.50;99.90;;;;;;5020889;28;20022;-53
2021/09/10 04:05:37;;;;;;;21.65;19.38;;;17.50;99.90;;;;;;5007291;28;20036;-54
2021/09/10 04:08:03;;;;;;;21.23;19.02;;;17.60;99.90;;;;;;5020327;28;20038;-51
2021/09/10 04:10:29;;;;;;;20.90;17.58;;;17.60;99.90;;;;;;5028192;28;20025;-53
2021/09/10 04:12:55;;;;;;;20.08;18.00;;;17.60;99.90;;;;;;5020099;28;20037;-50
2021/09/10 04:15:21;;;;;;;21.23;18.95;;;17.70;99.90;;;;;;5032663;28;20017;-50
2021/09/10 04:17:46;;;;;;;23.05;20.35;;;17.70;99.90;;;;;;5026160;28;20029;-49
2021/09/10 04:20:13;;;;;;;24.05;20.33;;;17.70;99.90;;;;;;5025055;28;20030;-51
2021/09/10 04:22:40;;;;;;;21.73;19.27;;;17.80;99.90;;;;;;5029302;28;20100;-51
2021/09/10 04:25:06;;;;;;;24.75;21.08;;;17.80;99.90;;;;;;5028430;28;20021;-51
2021/09/10 04:27:31;;;;;;;25.10;20.70;;;17.80;99.90;;;;;;5028603;28;20056;-50
2021/09/10 04:29:58;;;;;;;23.65;20.23;;;17.80;99.90;;;;;;5023245;28;20475;-50
2021/09/10 04:32:24;;;;;;;25.58;22.20;;;17.80;99.90;;;;;;5029027;28;20117;-50
2021/09/10 04:34:49;;;;;;;23.98;21.27;;;17.80;99.90;;;;;;5025109;28;20041;-50
2021/09/10 04:37:16;;;;;;;24.95;21.92;;;17.80;99.90;;;;;;5011395;28;20083;-52
2021/09/10 04:39:41;;;;;;;23.05;20.60;;;17.80;99.90;;;;;;5027293;28;20022;-50
2021/09/10 04:42:07;;;;;;;26.13;22.95;;;17.80;99.90;;;;;;5029864;28;20480;-49
2021/09/10 04:44:32;;;;;;;30.80;25.67;;;17.80;99.90;;;;;;5027402;28;20100;-50
2021/09/10 04:46:58;;;;;;;29.27;24.70;;;17.90;99.90;;;;;;5023210;28;20038;-50
2021/09/10 04:49:23;;;;;;;29.33;24.90;;;17.90;99.90;;;;;;5028635;28;20380;-50
2021/09/10 04:51:49;;;;;;;33.42;26.90;;;17.90;99.90;;;;;;5025426;28;20500;-50
2021/09/10 04:54:16;;;;;;;34.25;28.08;;;17.90;99.90;;;;;;5028567;28;20030;-50
2021/09/10 04:56:43;;;;;;;36.65;29.38;;;17.90;99.90;;;;;;5026339;28;20096;-48
2021/09/10 04:59:08;;;;;;;37.88;29.80;;;17.90;99.90;;;;;;5029457;28;20464;-49
2021/09/10 05:01:34;;;;;;;40.67;31.00;;;17.90;99.90;;;;;;5027510;28;20083;-49
2021/09/10 05:03:59;;;;;;;34.20;27.92;;;17.90;99.90;;;;;;5022730;28;20038;-51
2021/09/10 05:06:25;;;;;;;38.17;31.40;;;17.90;99.90;;;;;;5027629;28;20029;-48
2021/09/10 05:08:51;;;;;;;39.33;30.30;;;17.90;99.90;;;;;;5024185;28;20036;-48
2021/09/10 05:11:16;;;;;;;35.90;29.40;;;17.80;99.90;;;;;;5028503;28;20075;-50
2021/09/10 05:13:42;;;;;;;31.08;25.98;;;17.80;99.90;;;;;;5026099;28;20156;-49
2021/09/10 05:16:07;;;;;;;33.55;26.92;;;17.70;99.90;;;;;;5029053;28;20025;-48
2021/09/10 05:18:33;;;;;;;45.72;35.45;;;17.70;99.90;;;;;;5009589;28;20026;-48
2021/09/10 05:20:59;;;;;;;38.55;30.48;;;17.70;99.90;;;;;;5022688;28;20028;-48
2021/09/10 05:23:25;;;;;;;34.38;27.33;;;17.70;99.90;;;;;;5027691;28;20135;-47
2021/09/10 05:25:50;;;;;;;34.10;26.38;;;17.70;99.90;;;;;;5028025;28;20516;-48
2021/09/10 05:28:16;;;;;;;33.00;29.08;;;17.70;99.90;;;;;;5023940;28;20030;-48
2021/09/10 05:30:41;;;;;;;34.42;29.70;;;17.70;99.90;;;;;;5025042;28;20022;-47
2021/09/10 05:33:07;;;;;;;36.50;29.70;;;17.70;99.90;;;;;;5008983;28;20036;-50
2021/09/10 05:35:33;;;;;;;37.25;29.77;;;17.60;99.90;;;;;;5006322;28;20527;-47
2021/09/10 05:37:58;;;;;;;35.78;29.30;;;17.70;99.90;;;;;;5028391;28;20384;-47
2021/09/10 05:40:24;;;;;;;40.63;33.05;;;17.70;99.90;;;;;;5025125;28;20487;-47
2021/09/10 05:42:50;;;;;;;40.38;31.48;;;17.70;99.90;;;;;;5028811;28;20037;-48
2021/09/10 05:45:15;;;;;;;35.50;29.48;;;17.70;99.90;;;;;;5023506;28;20037;-51
2021/09/10 05:47:41;;;;;;;36.88;28.27;;;17.70;99.90;;;;;;5024642;28;20026;-48
2021/09/10 05:50:07;;;;;;;33.00;28.48;;;17.70;99.90;;;;;;5026642;28;20033;-48
2021/09/10 05:52:33;;;;;;;36.30;30.77;;;17.70;99.90;;;;;;5024259;28;20056;-47
2021/09/10 05:54:58;;;;;;;39.13;30.73;;;17.70;99.90;;;;;;5027988;28;20030;-47
2021/09/10 05:57:24;;;;;;;31.88;27.33;;;17.70;99.90;;;;;;5024950;28;20480;-48
2021/09/10 05:59:50;;;;;;;29.70;25.35;;;17.70;99.90;;;;;;5028914;28;20032;-47
2021/09/10 06:02:16;;;;;;;29.40;25.80;;;17.70;99.90;;;;;;5023682;28;20492;-47
2021/09/10 06:04:42;;;;;;;32.63;25.98;;;17.70;99.90;;;;;;5024196;28;20707;-48
2021/09/10 06:07:07;;;;;;;30.23;24.33;;;17.70;99.90;;;;;;5026048;28;20041;-47
2021/09/10 06:09:33;;;;;;;26.48;23.30;;;17.70;99.90;;;;;;5023680;28;20025;-48
2021/09/10 06:11:58;;;;;;;28.02;24.80;;;17.70;99.90;;;;;;5027598;28;20021;-48
2021/09/10 06:14:24;;;;;;;29.10;25.20;;;17.70;99.90;;;;;;5006028;28;20036;-48
2021/09/10 06:16:49;;;;;;;33.90;26.58;;;17.70;99.90;;;;;;5028635;28;20018;-53
2021/09/10 06:19:15;;;;;;;31.50;25.15;;;17.70;99.90;;;;;;5025393;28;20403;-49
2021/09/10 06:21:41;;;;;;;28.50;22.90;;;17.70;99.90;;;;;;5024086;28;20026;-48
2021/09/10 06:24:06;;;;;;;31.23;24.83;;;17.70;99.90;;;;;;5025768;28;20025;-49
2021/09/10 06:26:33;;;;;;;30.02;24.88;;;17.70;99.90;;;;;;5025776;28;20484;-48
2021/09/10 06:28:58;;;;;;;28.65;25.30;;;17.70;99.90;;;;;;5020408;28;20519;-49
2021/09/10 06:31:24;;;;;;;31.60;25.95;;;17.80;99.90;;;;;;5028537;28;20026;-47
2021/09/10 06:33:49;;;;;;;35.78;28.70;;;17.80;99.90;;;;;;5020775;28;20480;-49
2021/09/10 06:36:15;;;;;;;37.88;30.38;;;17.80;99.90;;;;;;5028307;28;20025;-48
2021/09/10 06:38:40;;;;;;;44.30;33.58;;;17.80;99.90;;;;;;5022597;28;20037;-48
2021/09/10 06:41:06;;;;;;;48.47;37.33;;;17.80;99.90;;;;;;5028745;28;20021;-48
2021/09/10 06:43:31;;;;;;;49.47;37.78;;;17.80;99.90;;;;;;5025390;28;20029;-48
2021/09/10 06:45:57;;;;;;;54.90;40.95;;;17.90;99.90;;;;;;5019629;28;20022;-48
2021/09/10 06:48:22;;;;;;;51.28;39.80;;;17.90;99.90;;;;;;5028331;28;20022;-48
2021/09/10 06:50:48;;;;;;;56.25;39.03;;;17.90;99.90;;;;;;5020328;28;20034;-49
2021/09/10 06:53:13;;;;;;;51.20;39.45;;;17.90;99.90;;;;;;5028479;28;20028;-48
2021/09/10 06:55:39;;;;;;;49.17;38.80;;;17.90;99.90;;;;;;5022649;28;20028;-49
2021/09/10 06:58:04;;;;;;;46.75;38.10;;;17.90;99.90;;;;;;5028274;28;20132;-47
2021/09/10 07:00:30;;;;;;;56.78;40.55;;;17.90;99.90;;;;;;5025723;28;20026;-49
2021/09/10 07:02:56;;;;;;;55.85;38.75;;;17.90;99.90;;;;;;5019689;28;20022;-50
2021/09/10 07:05:21;;;;;;;48.30;33.80;;;17.90;99.90;;;;;;5028283;28;20021;-50
2021/09/10 07:07:47;;;;;;;37.35;28.80;;;17.90;99.90;;;;;;5037155;22;20045;-49
2021/09/10 07:10:12;;;;;;;41.72;31.42;;;17.90;99.90;;;;;;5027479;28;20025;-52
2021/09/10 07:12:38;;;;;;;40.70;30.27;;;17.80;99.90;;;;;;5023009;28;20119;-52
2021/09/10 07:15:04;;;;;;;29.88;25.33;;;17.80;99.90;;;;;;5009810;28;20053;-51
2021/09/10 07:17:32;;;;;;;34.05;26.60;;;17.80;99.90;;;;;;5025814;28;20035;-51
2021/09/10 07:19:58;;;;;;;46.03;34.85;;;17.80;99.90;;;;;;5019679;28;20626;-49
2021/09/10 07:22:24;;;;;;;49.97;35.63;;;17.80;99.90;;;;;;5028170;28;20026;-47
2021/09/10 07:24:50;;;;;;;52.42;35.78;;;17.80;99.90;;;;;;5023687;28;20040;-48
2021/09/10 07:27:15;;;;;;;37.05;28.45;;;17.70;99.90;;;;;;5024340;28;20025;-49
2021/09/10 07:29:41;;;;;;;38.10;26.95;;;17.80;99.90;;;;;;5022031;28;20033;-49
2021/09/10 07:32:07;;;;;;;35.03;25.95;;;17.70;99.90;;;;;;5023682;28;20018;-48
2021/09/10 07:34:32;;;;;;;42.97;33.80;;;17.80;99.90;;;;;;5022830;28;20020;-50
2021/09/10 07:36:59;;;;;;;38.20;29.23;;;17.80;99.90;;;;;;5024669;28;20439;-49
2021/09/10 07:39:24;;;;;;;37.63;29.02;;;17.80;99.90;;;;;;5006348;28;20021;-49
2021/09/10 07:41:50;;;;;;;40.30;31.83;;;17.80;99.90;;;;;;5027080;28;20530;-50
2021/09/10 07:44:17;;;;;;;40.97;31.73;;;17.80;99.90;;;;;;5024008;28;20026;-48
2021/09/10 07:46:45;;;;;;;38.25;27.83;;;17.80;99.90;;;;;;5021217;28;20025;-48
2021/09/10 07:49:11;;;;;;;40.05;30.70;;;17.80;99.90;;;;;;5023376;28;20025;-51
2021/09/10 07:51:37;;;;;;;33.05;28.20;;;17.80;99.90;;;;;;5022888;28;20048;-49
2021/09/10 07:54:06;;;;;;;29.05;24.63;;;17.80;99.90;;;;;;5024744;28;20461;-48
2021/09/10 07:56:32;;;;;;;29.02;25.27;;;17.80;99.90;;;;;;5023658;28;20109;-50
2021/09/10 07:58:58;;;;;;;32.92;27.02;;;17.80;99.90;;;;;;5026470;28;20096;-49
2021/09/10 08:01:24;;;;;;;33.38;25.30;;;17.80;99.90;;;;;;5024493;28;20025;-49
2021/09/10 08:03:50;;;;;;;29.60;23.05;;;17.90;99.90;;;;;;5020510;28;20036;-51
2021/09/10 08:06:16;;;;;;;31.70;26.38;;;17.90;99.90;;;;;;5006682;28;20033;-52
2021/09/10 08:08:41;;;;;;;41.40;31.60;;;17.90;99.90;;;;;;5022403;28;20040;-49
2021/09/10 08:11:07;;;;;;;32.22;26.58;;;17.90;99.90;;;;;;5024664;28;20464;-50
2021/09/10 08:13:32;;;;;;;34.25;27.88;;;17.90;99.90;;;;;;5022599;28;20442;-53
2021/09/10 08:15:58;;;;;;;34.03;28.23;;;17.90;99.90;;;;;;5026054;28;20089;-51
2021/09/10 08:18:24;;;;;;;46.60;33.15;;;17.90;99.90;;;;;;5024321;28;20421;-49
2021/09/10 08:20:49;;;;;;;39.72;30.55;;;18.00;99.90;;;;;;5002916;28;20029;-49
2021/09/10 08:23:15;;;;;;;41.20;31.67;;;17.90;99.90;;;;;;5024231;28;20037;-50
2021/09/10 08:25:40;;;;;;;38.25;30.23;;;18.00;99.90;;;;;;5026439;28;20033;-50
2021/09/10 08:28:06;;;;;;;33.30;25.75;;;18.00;99.90;;;;;;5022862;28;20038;-50
2021/09/10 08:30:32;;;;;;;31.98;25.23;;;18.00;99.90;;;;;;5021093;28;20025;-51
2021/09/10 08:32:58;;;;;;;35.60;28.77;;;18.00;99.90;;;;;;5024873;28;20553;-48
2021/09/10 08:35:24;;;;;;;37.30;29.83;;;18.00;99.90;;;;;;5020500;28;20033;-51
2021/09/10 08:37:51;;;;;;;36.05;29.38;;;18.00;99.90;;;;;;5025609;28;20053;-48
2021/09/10 08:40:18;;;;;;;33.50;27.20;;;18.00;99.90;;;;;;5022556;28;20049;-49
2021/09/10 08:42:45;;;;;;;40.53;31.27;;;18.00;99.90;;;;;;5026520;28;20396;-49
2021/09/10 08:45:15;;;;;;;41.58;32.00;;;18.10;99.90;;;;;;5021683;28;20021;-49
2021/09/10 08:47:43;;;;;;;35.80;29.23;;;18.10;99.90;;;;;;5021862;28;20434;-49
2021/09/10 08:50:09;;;;;;;33.72;29.10;;;18.10;99.90;;;;;;5006180;28;20538;-50
2021/09/10 08:52:34;;;;;;;38.80;29.92;;;18.10;99.90;;;;;;5004224;28;20560;-48
2021/09/10 08:55:00;;;;;;;32.97;26.90;;;18.10;99.90;;;;;;5025444;28;20092;-51
2021/09/10 08:57:29;;;;;;;36.55;30.02;;;18.10;99.90;;;;;;5022494;28;20495;-50
2021/09/10 09:00:08;;;;;;;32.97;28.17;;;18.10;99.90;;;;;;5026560;28;20109;-47
2021/09/10 09:02:34;;;;;;;31.25;27.23;;;18.10;99.90;;;;;;5020526;28;20513;-47
2021/09/10 09:04:59;;;;;;;33.58;26.08;;;18.10;99.90;;;;;;5027628;28;20025;-49
2021/09/10 09:07:27;;;;;;;39.70;30.05;;;18.10;99.90;;;;;;5007222;28;20053;-47
2021/09/10 09:09:59;;;;;;;35.72;27.95;;;18.10;99.90;;;;;;5027679;28;20025;-48
2021/09/10 09:12:30;;;;;;;30.83;25.48;;;18.10;99.90;;;;;;5019185;28;20028;-49
2021/09/10 09:15:01;;;;;;;31.73;26.63;;;18.10;99.90;;;;;;5011016;28;20017;-50
2021/09/10 09:17:31;;;;;;;35.15;25.30;;;18.10;99.90;;;;;;5028105;28;20104;-49
2021/09/10 09:20:24;;;;;;;31.30;23.35;;;18.10;99.90;;;;;;5021814;28;20026;-49
2021/09/10 09:22:52;;;;;;;31.30;25.30;;;18.20;99.90;;;;;;5026861;28;20022;-48
2021/09/10 09:25:19;;;;;;;29.90;23.17;;;18.20;99.90;;;;;;5011627;28;20052;-50
2021/09/10 09:27:44;;;;;;;30.08;22.50;;;18.20;99.90;;;;;;5009659;28;20034;-49
2021/09/10 09:30:10;;;;;;;25.63;21.48;;;18.20;99.90;;;;;;5022167;28;20633;-47
2021/09/10 09:32:48;;;;;;;25.02;19.33;;;18.20;99.90;;;;;;5027836;28;20029;-49
2021/09/10 09:35:14;;;;;;;19.75;17.65;;;18.20;99.90;;;;;;5023548;28;20544;-47
2021/09/10 09:37:40;;;;;;;22.85;18.95;;;18.20;99.90;;;;;;5010704;28;20136;-47
2021/09/10 09:40:06;;;;;;;22.58;19.73;;;18.20;99.90;;;;;;5025216;28;20040;-47
2021/09/10 09:42:34;;;;;;;26.48;21.65;;;18.30;99.90;;;;;;5029047;28;20038;-48
2021/09/10 09:45:15;;;;;;;23.05;20.10;;;18.30;99.90;;;;;;5025866;28;20025;-47
2021/09/10 09:47:43;;;;;;;25.17;20.25;;;18.30;99.90;;;;;;5024494;28;20072;-49
2021/09/10 09:50:13;;;;;;;21.08;16.23;;;18.40;99.90;;;;;;5026510;28;20029;-48
2021/09/10 09:52:39;;;;;;;24.08;19.42;;;18.40;99.90;;;;;;5025276;28;20029;-51
2021/09/10 09:55:07;;;;;;;21.33;16.95;;;18.50;99.90;;;;;;5028148;28;20360;-50
2021/09/10 09:57:36;;;;;;;17.33;14.10;;;18.50;99.90;;;;;;5025295;28;20028;-47
2021/09/10 10:00:06;;;;;;;18.95;15.38;;;18.50;99.90;;;;;;5028844;28;20029;-50
2021/09/10 10:02:34;;;;;;;16.80;14.07;;;18.50;99.90;;;;;;5021661;28;20022;-47
2021/09/10 10:05:00;;;;;;;13.00;11.25;;;18.50;99.90;;;;;;5026517;28;20055;-49
2021/09/10 10:07:43;;;;;;;15.07;12.38;;;18.60;99.90;;;;;;5023736;28;20021;-48
2021/09/10 10:10:12;;;;;;;14.27;12.45;;;18.60;99.90;;;;;;5028808;28;20035;-47
2021/09/10 10:12:41;;;;;;;13.82;11.23;;;18.60;99.90;;;;;;5023610;28;20022;-47
2021/09/10 10:15:44;;;;;;;12.77;10.88;;;18.60;99.90;;;;;;5028653;28;20027;-48
2021/09/10 10:18:11;;;;;;;12.85;11.00;;;18.60;99.90;;;;;;4992581;28;20030;-50
2021/09/10 10:20:45;;;;;;;15.55;12.60;;;18.60;99.90;;;;;;5023724;28;20037;-51
2021/09/10 10:23:46;;;;;;;11.60;9.77;;;18.60;99.90;;;;;;5024420;28;20034;-50
2021/09/10 10:26:36;;;;;;;13.40;9.52;;;18.60;99.90;;;;;;4947972;28;20063;-52
2021/09/10 10:29:13;;;;;;;13.23;10.73;;;18.60;99.90;;;;;;5015671;28;20041;-48
2021/09/10 10:31:59;;;;;;;14.55;11.80;;;18.50;99.90;;;;;;5026350;28;20029;-49
2021/09/10 10:34:26;;;;;;;16.17;11.87;;;18.50;99.90;;;;;;5009003;28;20079;-48
2021/09/10 10:36:52;;;;;;;14.43;11.45;;;18.50;99.90;;;;;;5026013;28;20053;-48
2021/09/10 10:39:26;;;;;;;13.40;10.63;;;18.50;99.90;;;;;;5024817;28;20321;-49
2021/09/10 10:41:55;;;;;;;12.73;11.38;;;18.50;99.90;;;;;;5011360;28;20029;-48
2021/09/10 10:44:33;;;;;;;15.00;10.75;;;18.50;99.90;;;;;;5007836;28;20040;-48
2021/09/10 10:47:13;;;;;;;10.27;9.25;;;18.50;99.90;;;;;;5020613;28;20037;-49
2021/09/10 10:49:47;;;;;;;12.55;8.65;;;18.50;99.90;;;;;;5008627;28;20112;-48
2021/09/10 10:52:29;;;;;;;9.25;8.32;;;18.50;99.90;;;;;;5022508;28;20029;-51
2021/09/10 10:55:22;;;;;;;10.55;8.13;;;18.50;99.90;;;;;;5027305;28;20018;-49
2021/09/10 10:57:52;;;;;;;8.02;6.97;;;18.50;99.90;;;;;;5021635;28;20021;-48
2021/09/10 11:00:32;;;;;;;7.70;6.43;;;18.50;99.90;;;;;;5027719;28;20017;-48
2021/09/10 11:03:23;;;;;;;7.30;5.72;;;18.50;99.90;;;;;;5019718;28;20041;-49
2021/09/10 11:05:51;;;;;;;6.80;5.93;;;18.50;99.90;;;;;;5021342;28;20045;-51
2021/09/10 11:08:36;;;;;;;9.07;7.00;;;18.40;99.90;;;;;;5005501;28;20061;-48
2021/09/10 11:11:03;;;;;;;7.45;6.13;;;18.40;99.90;;;;;;5025647;28;20436;-50
2021/09/10 11:13:29;;;;;;;6.97;6.28;;;18.40;99.90;;;;;;5024255;28;20032;-49
2021/09/10 11:15:56;;;;;;;6.60;5.90;;;18.40;99.90;;;;;;5027304;28;20037;-48
2021/09/10 11:18:24;;;;;;;9.95;7.43;;;18.50;99.90;;;;;;5007309;28;20384;-49
2021/09/10 11:20:53;;;;;;;7.80;6.13;;;18.60;99.90;;;;;;5021305;28;20026;-50
2021/09/10 11:23:35;;;;;;;6.53;5.90;;;18.70;99.90;;;;;;5007725;28;20013;-53
2021/09/10 11:26:01;;;;;;;6.53;5.93;;;18.80;99.90;;;;;;5027329;28;20028;-49
2021/09/10 11:28:30;;;;;;;7.70;6.72;;;18.90;99.90;;;;;;5020649;28;20097;-49
2021/09/10 11:30:56;;;;;;;6.90;6.20;;;18.90;99.90;;;;;;5024670;28;20468;-50
2021/09/10 11:33:22;;;;;;;6.10;5.60;;;19.00;99.90;;;;;;5022769;28;20025;-50
2021/09/10 11:35:51;;;;;;;7.25;6.28;;;19.10;99.90;;;;;;5006321;28;20108;-49
2021/09/10 11:38:20;;;;;;;7.10;5.85;;;19.10;99.90;;;;;;5007225;28;20072;-51
2021/09/10 11:40:52;;;;;;;7.18;6.47;;;19.20;99.90;;;;;;5024853;28;20022;-51
2021/09/10 11:43:26;;;;;;;8.30;5.35;;;19.20;99.90;;;;;;5026592;28;20517;-49
2021/09/10 11:45:54;;;;;;;5.15;4.65;;;19.30;99.90;;;;;;5018699;28;20026;-50
2021/09/10 11:48:22;;;;;;;5.15;4.65;;;19.30;99.90;;;;;;5027585;28;20021;-49
2021/09/10 11:50:47;;;;;;;6.05;5.45;;;19.40;99.90;;;;;;5015223;28;20018;-49
2021/09/10 11:53:18;;;;;;;6.65;5.63;;;19.50;99.90;;;;;;5027557;28;20494;-52
2021/09/10 11:55:55;;;;;;;6.13;4.82;;;19.50;99.90;;;;;;5021517;28;20029;-49
2021/09/10 11:58:43;;;;;;;5.00;4.50;;;19.60;99.90;;;;;;5029477;28;20037;-50
2021/09/10 12:01:19;;;;;;;5.07;4.50;;;19.70;99.90;;;;;;5003902;28;20030;-49
2021/09/10 12:03:48;;;;;;;5.10;3.65;;;19.80;99.90;;;;;;5021262;28;20032;-51
2021/09/10 12:06:22;;;;;;;3.45;3.10;;;19.80;99.90;;;;;;5006595;28;20148;-50
2021/09/10 12:09:07;;;;;;;4.60;3.92;;;19.90;99.90;;;;;;5021976;28;20519;-49
2021/09/10 12:11:33;;;;;;;7.60;4.45;;;20.00;99.90;;;;;;5013465;28;20462;-49
2021/09/10 12:13:58;;;;;;;4.68;3.90;;;20.10;99.90;;;;;;5022704;28;20048;-48
2021/09/10 12:16:24;;;;;;;5.32;4.65;;;20.20;99.90;;;;;;5026730;28;20068;-51
2021/09/10 12:19:01;;;;;;;7.13;4.53;;;20.20;99.90;;;;;;5006289;28;20113;-50
2021/09/10 12:21:31;;;;;;;5.97;4.25;;;20.30;99.90;;;;;;5013718;28;20026;-50
2021/09/10 12:24:26;;;;;;;5.18;4.40;;;20.40;99.90;;;;;;5007359;28;20034;-49
2021/09/10 12:26:55;;;;;;;5.22;3.80;;;20.50;99.90;;;;;;5004358;28;20405;-51
2021/09/10 12:29:28;;;;;;;5.05;3.97;;;20.50;99.90;;;;;;5021663;28;20445;-50
2021/09/10 12:31:55;;;;;;;4.60;3.50;;;20.60;99.90;;;;;;5022784;28;20432;-48
2021/09/10 12:34:21;;;;;;;3.15;2.85;;;20.70;99.90;;;;;;5005233;28;20029;-49
2021/09/10 12:36:48;;;;;;;4.65;3.00;;;20.70;99.90;;;;;;5029113;28;20057;-51
2021/09/10 12:39:15;;;;;;;3.28;3.00;;;20.70;99.90;;;;;;5026171;28;20364;-49
2021/09/10 12:41:43;;;;;;;3.42;2.97;;;20.80;99.90;;;;;;5031527;28;20033;-49
2021/09/10 12:44:10;;;;;;;3.30;2.67;;;20.90;99.90;;;;;;5008366;28;20109;-50
2021/09/10 12:46:37;;;;;;;5.93;3.65;;;21.00;99.90;;;;;;5025125;28;20531;-50
2021/09/10 12:49:04;;;;;;;5.45;3.72;;;21.10;99.90;;;;;;5026277;28;20117;-49
2021/09/10 12:51:33;;;;;;;6.00;3.85;;;21.10;99.90;;;;;;5026243;28;20026;-49